Time;durP1;ratioP1;P1;durP2;ratioP2;P2;SDS_P1;SDS_P2;PMS_P1;PMS_P2;Temp;Humidity;BMP_temperature;BMP_pressure;BME280_temperature;BME280_humidity;BME280_pressure;Samples;Min_cycle;Max_cycle;Signal;HPM_P1;HPM_P2
2021/08/05 00:01:11;;;;;;;;;;;;;;;15.06;89.33;96104.47;5085639;28;20016;-77
2021/08/05 00:03:37;;;;;;;;;;;;;;;15.04;89.20;96099.41;5086757;28;19964;-77
2021/08/05 00:06:03;;;;;;;;;;;;;;;15.05;88.92;96101.00;5085591;28;20035;-76
2021/08/05 00:08:29;;;;;;;;;;;;;;;15.06;89.20;96112.38;5076703;28;20007;-77
2021/08/05 00:10:54;;;;;;;;;;;;;;;15.05;89.07;96103.63;5087002;28;20051;-77
2021/08/05 00:13:20;;;;;;;;;;;;;;;15.04;88.78;96096.78;5087454;28;19964;-77
2021/08/05 00:15:46;;;;;;;;;;;;;;;15.03;89.20;96103.09;5080817;28;20011;-77
2021/08/05 00:18:12;;;;;;;;;;;;;;;15.02;89.04;96106.81;5082331;28;19965;-77
2021/08/05 00:20:38;;;;;;;;;;;;;;;15.00;89.12;96109.69;5062381;28;20059;-77
2021/08/05 00:23:04;;;;;;;;;;;;;;;14.99;89.17;96107.28;5066354;28;19972;-76
2021/08/05 00:25:30;;;;;;;;;;;;;;;14.99;89.06;96113.41;5076897;28;19968;-76
2021/08/05 00:28:03;;;;;;;;;;;;;;;14.98;89.24;96113.63;5082656;28;20003;-76
2021/08/05 00:30:29;;;;;;;;;;;;;;;14.96;89.24;96103.31;5081439;28;19960;-77
2021/08/05 00:32:55;;;;;;;;;;;;;;;14.95;89.71;96103.56;5080209;28;19965;-76
2021/08/05 00:35:21;;;;;;;;;;;;;;;14.93;89.35;96116.22;5089705;28;19969;-77
2021/08/05 00:37:47;;;;;;;;;;;;;;;14.92;89.51;96106.72;5078438;28;19965;-76
2021/08/05 00:40:13;;;;;;;;;;;;;;;14.92;89.16;96112.00;5082229;28;20344;-76
2021/08/05 00:42:39;;;;;;;;;;;;;;;14.91;89.35;96105.94;5090355;28;19971;-77
2021/08/05 00:45:05;;;;;;;;;;;;;;;14.93;89.37;96108.31;5084204;28;19973;-76
2021/08/05 00:47:31;;;;;;;;;;;;;;;14.92;89.25;96106.72;5078041;28;20338;-76
2021/08/05 00:49:58;;;;;;;;;;;;;;;14.90;89.23;96114.09;5087736;28;19989;-76
2021/08/05 00:52:24;;;;;;;;;;;;;;;14.90;89.39;96111.47;5066740;28;20445;-76
2021/08/05 00:54:51;;;;;;;;;;;;;;;14.88;89.60;96110.91;5080352;28;19973;-76
2021/08/05 00:57:17;;;;;;;;;;;;;;;14.88;90.03;96110.91;5051645;28;19965;-76
2021/08/05 00:59:42;;;;;;;;;;;;;;;14.86;90.05;96111.16;5066493;28;20027;-76
2021/08/05 01:02:12;;;;;;;;;;;;;;;14.85;89.97;96100.88;5085739;28;19965;-77
2021/08/05 01:04:39;;;;;;;;;;;;;;;14.83;90.38;96098.50;5089044;28;20047;-76
2021/08/05 01:07:05;;;;;;;;;;;;;;;14.82;91.06;96110.09;5084895;28;19960;-76
2021/08/05 01:09:51;;;;;;;;;;;;;;;14.80;91.38;96102.44;5087967;28;19987;-77
2021/08/05 01:12:26;;;;;;;;;;;;;;;14.77;91.28;96108.22;5087204;28;19985;-76
2021/08/05 01:15:03;;;;;;;;;;;;;;;14.76;91.39;96105.81;5089124;28;19963;-76
2021/08/05 01:17:30;;;;;;;;;;;;;;;14.74;91.59;96103.44;5078929;28;19964;-77
2021/08/05 01:19:58;;;;;;;;;;;;;;;14.74;92.03;96113.19;5086258;28;19976;-76
2021/08/05 01:22:29;;;;;;;;;;;;;;;14.72;92.05;96102.09;5083156;28;20431;-76
2021/08/05 01:25:03;;;;;;;;;;;;;;;14.71;92.48;96105.78;5086704;28;19972;-76
2021/08/05 01:27:30;;;;;;;;;;;;;;;14.70;92.49;96107.63;5051937;28;19977;-76
2021/08/05 01:29:57;;;;;;;;;;;;;;;14.72;92.59;96096.81;5085765;28;19975;-76
2021/08/05 01:32:23;;;;;;;;;;;;;;;14.72;92.01;96102.91;5085028;28;19972;-76
2021/08/05 01:34:49;;;;;;;;;;;;;;;14.74;92.46;96094.72;5080580;28;19973;-77
2021/08/05 01:37:16;;;;;;;;;;;;;;;14.74;92.31;96092.88;5087922;28;20164;-76
2021/08/05 01:39:43;;;;;;;;;;;;;;;14.74;92.81;96086.78;5086678;28;19965;-77
2021/08/05 01:42:09;;;;;;;;;;;;;;;14.74;92.35;96087.59;5092883;28;19965;-76
2021/08/05 01:44:36;;;;;;;;;;;;;;;14.75;92.32;96089.19;5062613;28;19961;-76
2021/08/05 01:47:02;;;;;;;;;;;;;;;14.75;92.46;96094.47;5049435;28;20351;-76
2021/08/05 01:49:28;;;;;;;;;;;;;;;14.76;92.07;96089.97;5086210;28;19992;-76
2021/08/05 01:51:55;;;;;;;;;;;;;;;14.74;92.20;96089.44;5067717;28;20372;-76
2021/08/05 01:54:21;;;;;;;;;;;;;;;14.73;91.90;96082.56;5050290;28;20351;-77
2021/08/05 01:56:47;;;;;;;;;;;;;;;14.73;92.49;96091.28;5083653;28;19968;-76
2021/08/05 01:59:13;;;;;;;;;;;;;;;14.73;92.08;96083.34;5085023;28;20010;-76
2021/08/05 02:01:41;;;;;;;;;;;;;;;14.73;92.43;96087.84;5086311;28;20019;-76
2021/08/05 02:04:16;;;;;;;;;;;;;;;14.73;92.44;96083.34;5088669;28;19968;-76
2021/08/05 02:06:50;;;;;;;;;;;;;;;14.74;92.41;96084.97;5086337;28;19987;-77
2021/08/05 02:09:21;;;;;;;;;;;;;;;14.74;92.38;96082.31;5064016;28;19976;-76
2021/08/05 02:11:50;;;;;;;;;;;;;;;14.75;92.91;96080.47;5083379;28;19972;-76
2021/08/05 02:14:16;;;;;;;;;;;;;;;14.73;92.68;96079.94;5080349;28;19969;-76
2021/08/05 02:16:45;;;;;;;;;;;;;;;14.69;92.84;96084.91;5089372;28;19965;-76
2021/08/05 02:19:12;;;;;;;;;;;;;;;14.69;93.06;96081.47;5087269;28;19975;-76
2021/08/05 02:21:40;;;;;;;;;;;;;;;14.67;93.58;96081.72;5068034;28;19980;-76
2021/08/05 02:24:06;;;;;;;;;;;;;;;14.61;94.10;96075.63;5065963;28;19972;-76
2021/08/05 02:26:32;;;;;;;;;;;;;;;14.55;93.24;96067.88;5048163;28;20345;-76
2021/08/05 02:28:58;;;;;;;;;;;;;;;14.54;93.56;96064.44;5064216;28;19988;-76
2021/08/05 02:31:24;;;;;;;;;;;;;;;14.56;93.45;96066.88;5062362;28;19965;-76
2021/08/05 02:33:51;;;;;;;;;;;;;;;14.58;93.49;96068.22;5079803;28;19964;-76
2021/08/05 02:36:17;;;;;;;;;;;;;;;14.60;93.51;96070.59;5087965;28;20328;-76
2021/08/05 02:38:43;;;;;;;;;;;;;;;14.62;93.52;96065.88;5087904;28;19965;-76
2021/08/05 02:41:09;;;;;;;;;;;;;;;14.63;93.11;96066.66;5087122;28;19964;-76
2021/08/05 02:43:35;;;;;;;;;;;;;;;14.63;93.73;96062.16;5081481;28;19965;-76
2021/08/05 02:46:02;;;;;;;;;;;;;;;14.61;93.16;96059.81;5087134;28;19969;-76
2021/08/05 02:48:29;;;;;;;;;;;;;;;14.60;92.97;96055.56;5089262;28;19976;-76
2021/08/05 02:50:56;;;;;;;;;;;;;;;14.61;93.02;96059.81;5065881;28;19988;-76
2021/08/05 02:53:23;;;;;;;;;;;;;;;14.63;92.75;96059.53;5080788;28;19968;-76
2021/08/05 02:55:49;;;;;;;;;;;;;;;14.64;92.68;96058.50;5066849;28;19965;-76
2021/08/05 02:58:15;;;;;;;;;;;;;;;14.65;92.72;96049.53;5085029;28;19965;-76
2021/08/05 03:00:42;;;;;;;;;;;;;;;14.68;92.67;96053.47;5084758;28;19972;-76
2021/08/05 03:03:08;;;;;;;;;;;;;;;14.68;92.29;96051.66;5071410;28;19968;-76
2021/08/05 03:05:34;;;;;;;;;;;;;;;14.68;92.55;96053.47;5076735;28;19969;-76
2021/08/05 03:08:00;;;;;;;;;;;;;;;14.68;92.45;96054.31;5087094;28;19983;-76
2021/08/05 03:10:26;;;;;;;;;;;;;;;14.68;92.78;96048.22;5079107;28;20034;-76
2021/08/05 03:12:52;;;;;;;;;;;;;;;14.67;92.48;96049.28;5050883;28;19965;-76
2021/08/05 03:15:18;;;;;;;;;;;;;;;14.68;92.58;96058.75;5073962;28;20008;-76
2021/08/05 03:17:44;;;;;;;;;;;;;;;14.66;93.11;96056.41;5064904;28;19971;-76
2021/08/05 03:20:15;;;;;;;;;;;;;;;14.65;92.87;96052.16;5066470;28;19968;-76
2021/08/05 03:22:42;;;;;;;;;;;;;;;14.64;92.83;96045.31;5063597;28;19973;-76
2021/08/05 03:25:08;;;;;;;;;;;;;;;14.64;93.06;96049.78;5081189;28;19964;-76
2021/08/05 03:27:34;;;;;;;;;;;;;;;14.58;93.60;96044.47;5068520;28;19979;-76
2021/08/05 03:30:00;;;;;;;;;;;;;;;14.55;93.17;96044.97;5083419;28;20001;-76
2021/08/05 03:32:26;;;;;;;;;;;;;;;14.56;93.40;96045.78;5081245;28;19986;-77
2021/08/05 03:34:52;;;;;;;;;;;;;;;14.55;93.77;96046.78;5062613;28;19965;-76
2021/08/05 03:37:18;;;;;;;;;;;;;;;14.54;93.61;96040.69;5081858;28;19968;-76
2021/08/05 03:39:44;;;;;;;;;;;;;;;14.55;93.14;96044.13;5087427;28;20000;-76
2021/08/05 03:42:10;;;;;;;;;;;;;;;14.56;92.84;96040.50;5087043;28;20027;-76
2021/08/05 03:44:36;;;;;;;;;;;;;;;14.56;92.77;96048.41;5083231;28;20066;-76
2021/08/05 03:47:02;;;;;;;;;;;;;;;14.56;92.85;96046.56;5065611;28;20000;-76
2021/08/05 03:49:28;;;;;;;;;;;;;;;14.56;92.63;96041.28;5082649;28;20354;-76
2021/08/05 03:51:53;;;;;;;;;;;;;;;14.55;92.73;96052.03;5070229;28;20051;-76
2021/08/05 03:54:19;;;;;;;;;;;;;;;14.53;92.66;96047.03;5082258;28;19969;-76
2021/08/05 03:56:45;;;;;;;;;;;;;;;14.52;92.54;96045.44;5084233;28;20000;-76
2021/08/05 03:59:11;;;;;;;;;;;;;;;14.52;92.36;96044.66;5084413;28;19968;-76
2021/08/05 04:01:37;;;;;;;;;;;;;;;14.49;92.06;96058.31;5081014;28;20321;-76
2021/08/05 04:04:03;;;;;;;;;;;;;;;14.47;92.57;96049.88;5082057;28;20015;-76
2021/08/05 04:06:29;;;;;;;;;;;;;;;14.47;92.52;96048.06;5065561;28;19965;-76
2021/08/05 04:08:55;;;;;;;;;;;;;;;14.47;92.52;96053.31;5087519;28;20574;-76
2021/08/05 04:11:21;;;;;;;;;;;;;;;14.47;92.76;96050.69;5083038;28;20508;-76
2021/08/05 04:13:47;;;;;;;;;;;;;;;14.48;92.32;96048.84;5067191;28;19978;-77
2021/08/05 04:16:13;;;;;;;;;;;;;;;14.48;92.49;96054.13;5081807;28;20500;-76
2021/08/05 04:18:39;;;;;;;;;;;;;;;14.46;92.31;96050.94;5078025;28;19968;-77
2021/08/05 04:21:05;;;;;;;;;;;;;;;14.46;92.16;96053.56;5066795;28;19973;-76
2021/08/05 04:23:31;;;;;;;;;;;;;;;14.46;92.08;96053.56;5088301;28;20026;-76
2021/08/05 04:25:57;;;;;;;;;;;;;;;14.46;92.01;96050.94;5085891;28;19972;-76
2021/08/05 04:28:23;;;;;;;;;;;;;;;14.46;92.46;96066.75;5082936;28;20162;-78
2021/08/05 04:30:50;;;;;;;;;;;;;;;14.46;91.99;96062.28;5066992;28;19972;-76
2021/08/05 04:33:16;;;;;;;;;;;;;;;14.47;92.10;96060.41;5093197;28;19971;-76
2021/08/05 04:35:42;;;;;;;;;;;;;;;14.45;92.32;96062.50;5085735;28;19964;-76
2021/08/05 04:38:10;;;;;;;;;;;;;;;14.45;92.00;96063.34;5084033;28;20336;-77
2021/08/05 04:40:36;;;;;;;;;;;;;;;14.43;91.71;96059.38;5063636;28;20436;-76
2021/08/05 04:43:02;;;;;;;;;;;;;;;14.42;91.46;96058.53;5086597;28;19968;-76
2021/08/05 04:45:28;;;;;;;;;;;;;;;14.40;91.66;96058.00;5086800;28;20055;-76
2021/08/05 04:47:55;;;;;;;;;;;;;;;14.37;91.72;96059.31;5083574;28;20569;-76
2021/08/05 04:50:22;;;;;;;;;;;;;;;14.36;91.82;96060.38;5090414;28;19989;-76
2021/08/05 04:52:48;;;;;;;;;;;;;;;14.33;91.54;96058.22;5087348;28;19975;-76
2021/08/05 04:55:14;;;;;;;;;;;;;;;14.34;91.66;96059.00;5070218;28;20344;-76
2021/08/05 04:57:47;;;;;;;;;;;;;;;14.34;91.24;96059.00;5084052;28;20044;-76
2021/08/05 05:00:13;;;;;;;;;;;;;;;14.35;91.35;96061.41;5086737;28;19964;-78
2021/08/05 05:02:39;;;;;;;;;;;;;;;14.36;91.31;96057.72;5087475;28;19965;-76
2021/08/05 05:05:05;;;;;;;;;;;;;;;14.37;91.25;96054.03;5071396;28;19969;-76
2021/08/05 05:07:31;;;;;;;;;;;;;;;14.41;91.11;96052.47;5073658;28;19964;-76
2021/08/05 05:09:57;;;;;;;;;;;;;;;14.46;91.21;96050.94;5068838;28;19995;-76
2021/08/05 05:12:23;;;;;;;;;;;;;;;14.51;91.33;96062.34;5065232;28;20394;-76
2021/08/05 05:14:49;;;;;;;;;;;;;;;14.69;91.89;96055.09;5086666;28;19969;-76
2021/08/05 05:17:14;;;;;;;;;;;;;;;14.93;91.63;96056.31;5091690;28;19968;-78
2021/08/05 05:19:40;;;;;;;;;;;;;;;15.02;90.49;96056.63;5092851;28;19965;-76
2021/08/05 05:22:06;;;;;;;;;;;;;;;15.00;90.06;96056.88;5067120;28;19976;-76
2021/08/05 05:24:32;;;;;;;;;;;;;;;14.98;90.37;96058.19;5087483;28;20044;-76
2021/08/05 05:26:58;;;;;;;;;;;;;;;14.98;90.52;96055.56;5086362;28;19969;-77
2021/08/05 05:29:24;;;;;;;;;;;;;;;15.00;91.72;96064.00;5089675;28;20068;-76
2021/08/05 05:31:50;;;;;;;;;;;;;;;15.02;91.60;96061.91;5089205;28;20280;-76
2021/08/05 05:34:16;;;;;;;;;;;;;;;15.08;91.62;96055.59;5086574;28;19968;-76
2021/08/05 05:36:42;;;;;;;;;;;;;;;15.32;90.91;96055.97;5061764;28;19971;-76
2021/08/05 05:39:08;;;;;;;;;;;;;;;15.58;89.54;96054.25;5047177;28;19965;-76
2021/08/05 05:41:33;;;;;;;;;;;;;;;15.80;88.33;96053.28;5063937;28;20340;-76
2021/08/05 05:43:59;;;;;;;;;;;;;;;15.94;86.52;96057.03;5080464;28;19968;-76
2021/08/05 05:46:26;;;;;;;;;;;;;;;15.93;86.71;96047.50;5089053;28;20297;-76
2021/08/05 05:48:52;;;;;;;;;;;;;;;15.87;86.28;96045.88;5085668;28;19999;-76
2021/08/05 05:51:18;;;;;;;;;;;;;;;15.74;86.13;96043.75;5082488;28;20036;-76
2021/08/05 05:53:44;;;;;;;;;;;;;;;15.76;85.57;96042.44;5066921;28;19973;-76
2021/08/05 05:56:12;;;;;;;;;;;;;;;15.97;85.69;96047.78;5085694;28;20073;-76
2021/08/05 05:58:38;;;;;;;;;;;;;;;16.31;85.43;96040.13;5087382;28;19968;-76
2021/08/05 06:01:04;;;;;;;;;;;;;;;16.55;84.63;96039.63;5083221;28;19968;-76
2021/08/05 06:03:30;;;;;;;;;;;;;;;16.99;83.07;96039.06;5086280;28;20056;-76
2021/08/05 06:05:56;;;;;;;;;;;;;;;17.02;80.79;96039.31;5066494;28;20004;-76
2021/08/05 06:08:22;;;;;;;;;;;;;;;16.84;80.38;96032.72;5086591;28;20449;-76
2021/08/05 06:10:48;;;;;;;;;;;;;;;16.68;79.94;96028.47;5086584;28;19972;-76
2021/08/05 06:13:14;;;;;;;;;;;;;;;16.75;80.18;96031.63;5078591;28;20068;-76
2021/08/05 06:15:40;;;;;;;;;;;;;;;16.81;79.92;96027.97;5088350;28;19965;-76
2021/08/05 06:18:06;;;;;;;;;;;;;;;17.14;80.24;96032.94;5088609;28;19964;-76
2021/08/05 06:20:32;;;;;;;;;;;;;;;17.75;80.59;96027.38;5085313;28;19964;-76
2021/08/05 06:22:58;;;;;;;;;;;;;;;17.84;76.90;96025.75;5082314;28;20360;-77
2021/08/05 06:25:24;;;;;;;;;;;;;;;17.56;77.38;96037.81;5086285;28;19965;-76
2021/08/05 06:27:50;;;;;;;;;;;;;;;17.20;77.49;96045.91;5088493;28;19969;-77
2021/08/05 06:30:16;;;;;;;;;;;;;;;16.91;79.11;96042.25;5085915;28;19983;-76
2021/08/05 06:32:43;;;;;;;;;;;;;;;16.74;80.86;96045.94;5067004;28;19965;-76
2021/08/05 06:35:09;;;;;;;;;;;;;;;16.59;80.61;96040.69;5081524;28;19972;-75
2021/08/05 06:37:35;;;;;;;;;;;;;;;16.44;80.51;96044.91;5085492;28;19964;-76
2021/08/05 06:40:04;;;;;;;;;;;;;;;16.35;82.00;96045.69;5070237;28;19961;-76
2021/08/05 06:42:32;;;;;;;;;;;;;;;16.47;82.46;96048.88;5085498;28;20424;-76
2021/08/05 06:44:58;;;;;;;;;;;;;;;16.60;82.96;96047.56;5067939;28;19969;-76
2021/08/05 06:47:24;;;;;;;;;;;;;;;16.77;82.17;96050.69;5067933;28;19982;-76
2021/08/05 06:49:59;;;;;;;;;;;;;;;16.90;82.21;96045.94;5076704;28;19998;-76
2021/08/05 06:52:25;;;;;;;;;;;;;;;16.99;81.76;96054.97;5078270;28;20421;-76
2021/08/05 06:54:51;;;;;;;;;;;;;;;16.93;80.96;96040.91;5082774;28;19968;-76
2021/08/05 06:57:16;;;;;;;;;;;;;;;16.82;81.35;96050.75;5069108;28;20056;-76
2021/08/05 06:59:43;;;;;;;;;;;;;;;16.78;82.83;96046.22;5085310;28;19972;-76
2021/08/05 07:02:09;;;;;;;;;;;;;;;16.77;82.30;96044.63;5080682;28;20442;-76
2021/08/05 07:04:35;;;;;;;;;;;;;;;16.75;82.94;96049.38;5089781;28;20416;-76
2021/08/05 07:07:01;;;;;;;;;;;;;;;16.68;81.94;96041.72;5080828;28;19971;-76
2021/08/05 07:09:27;;;;;;;;;;;;;;;16.64;83.75;96041.44;5082769;28;19996;-76
2021/08/05 07:11:53;;;;;;;;;;;;;;;16.67;81.83;96042.78;5088921;28;19982;-76
2021/08/05 07:14:19;;;;;;;;;;;;;;;16.66;81.73;96037.75;5065241;28;19967;-76
2021/08/05 07:16:45;;;;;;;;;;;;;;;16.68;81.19;96040.94;5061439;28;19961;-76
2021/08/05 07:19:11;;;;;;;;;;;;;;;16.77;81.73;96039.31;5069085;28;20028;-76
2021/08/05 07:21:37;;;;;;;;;;;;;;;16.86;81.65;96032.44;5054189;28;20443;-76
2021/08/05 07:24:03;;;;;;;;;;;;;;;16.93;80.89;96034.84;5082971;28;19972;-76
2021/08/05 07:26:29;;;;;;;;;;;;;;;16.95;80.90;96036.16;5082799;28;20325;-76
2021/08/05 07:28:56;;;;;;;;;;;;;;;17.02;80.50;96033.22;5082899;28;19977;-76
2021/08/05 07:31:22;;;;;;;;;;;;;;;17.11;80.56;96036.88;5084858;28;19965;-76
2021/08/05 07:33:50;;;;;;;;;;;;;;;17.13;79.62;96026.03;5084407;28;19982;-77
2021/08/05 07:36:17;;;;;;;;;;;;;;;17.17;80.28;96019.91;5081000;28;19964;-76
2021/08/05 07:38:43;;;;;;;;;;;;;;;17.27;80.09;96021.75;5082534;28;19972;-76
2021/08/05 07:41:09;;;;;;;;;;;;;;;17.33;78.58;96023.31;5084160;28;19972;-76
2021/08/05 07:43:35;;;;;;;;;;;;;;;17.40;79.27;96039.72;5084109;28;20371;-76
2021/08/05 07:46:01;;;;;;;;;;;;;;;17.44;77.59;96024.84;5087026;28;20015;-76
2021/08/05 07:48:27;;;;;;;;;;;;;;;17.42;76.60;96029.63;5084114;28;19992;-76
2021/08/05 07:50:53;;;;;;;;;;;;;;;17.48;78.42;96029.63;5082758;28;19991;-76
2021/08/05 07:53:19;;;;;;;;;;;;;;;17.48;76.41;96029.63;5087964;28;20047;-79
2021/08/05 07:55:44;;;;;;;;;;;;;;;17.52;76.90;96028.81;5047639;28;19975;-78
2021/08/05 07:58:10;;;;;;;;;;;;;;;17.56;77.13;96029.06;5063136;28;19976;-78
2021/08/05 08:00:36;;;;;;;;;;;;;;;17.60;76.06;96022.16;5053748;28;20378;-79
2021/08/05 08:03:03;;;;;;;;;;;;;;;17.55;75.73;96028.25;5065578;28;20051;-78
2021/08/05 08:05:30;;;;;;;;;;;;;;;17.54;77.33;96020.59;5081193;28;20320;-79
2021/08/05 08:07:56;;;;;;;;;;;;;;;17.54;75.75;96016.06;5060197;28;19973;-79
2021/08/05 08:10:22;;;;;;;;;;;;;;;17.50;75.25;96014.25;5070636;28;20360;-79
2021/08/05 08:12:47;;;;;;;;;;;;;;;17.58;75.71;96008.38;5052990;28;19968;-78
2021/08/05 08:15:14;;;;;;;;;;;;;;;17.69;75.27;96011.75;5051930;28;19996;-79
2021/08/05 08:17:40;;;;;;;;;;;;;;;17.87;75.86;96010.34;5061961;28;19961;-79
2021/08/05 08:20:08;;;;;;;;;;;;;;;18.11;76.10;96005.16;5080016;28;20022;-80
2021/08/05 08:22:34;;;;;;;;;;;;;;;18.23;74.77;96005.59;5082712;28;19980;-78
2021/08/05 08:25:00;;;;;;;;;;;;;;;18.44;74.50;96001.72;5090154;28;19972;-79
2021/08/05 08:27:26;;;;;;;;;;;;;;;18.82;73.81;95993.94;5062990;28;19960;-78
2021/08/05 08:29:52;;;;;;;;;;;;;;;19.12;73.45;95994.69;5080809;28;20364;-75
2021/08/05 08:32:18;;;;;;;;;;;;;;;19.43;71.76;96000.44;5088955;28;19979;-76
2021/08/05 08:34:44;;;;;;;;;;;;;;;19.58;68.32;95991.47;5080936;28;20026;-76
2021/08/05 08:37:10;;;;;;;;;;;;;;;19.82;69.30;96003.94;5082522;28;19969;-76
2021/08/05 08:39:36;;;;;;;;;;;;;;;19.84;67.19;95996.47;5084509;28;20030;-76
2021/08/05 08:42:02;;;;;;;;;;;;;;;19.89;67.00;95991.09;5087022;28;19960;-76
2021/08/05 08:44:28;;;;;;;;;;;;;;;19.94;66.88;95996.31;5083521;28;19968;-76
2021/08/05 08:46:54;;;;;;;;;;;;;;;19.99;67.71;96001.59;5080051;28;19965;-76
2021/08/05 08:49:23;;;;;;;;;;;;;;;20.07;63.94;95976.97;5083576;28;20000;-76
2021/08/05 08:51:51;;;;;;;;;;;;;;;19.91;66.38;95996.09;5070440;28;19995;-77
2021/08/05 08:54:18;;;;;;;;;;;;;;;19.67;66.07;95989.78;5074964;28;19965;-76
2021/08/05 08:56:44;;;;;;;;;;;;;;;19.45;66.64;95987.66;5084118;28;20343;-76
2021/08/05 08:59:11;;;;;;;;;;;;;;;19.44;67.25;95991.41;5084168;28;19967;-76
2021/08/05 09:01:39;;;;;;;;;;;;;;;19.49;69.10;95998.50;5083091;28;19964;-76
2021/08/05 09:04:07;;;;;;;;;;;;;;;19.55;69.59;95999.22;5086499;28;19968;-76
2021/08/05 09:06:33;;;;;;;;;;;;;;;19.61;67.35;95992.75;5083238;28;19964;-75
2021/08/05 09:08:59;;;;;;;;;;;;;;;19.64;68.97;96000.19;5078525;28;20367;-76
2021/08/05 09:11:25;;;;;;;;;;;;;;;19.65;66.20;95986.59;5082236;28;20432;-77
2021/08/05 09:13:51;;;;;;;;;;;;;;;19.72;67.36;95994.25;5084373;28;20000;-77
2021/08/05 09:16:25;;;;;;;;;;;;;;;20.08;67.16;95991.84;5088915;28;20345;-77
2021/08/05 09:18:51;;;;;;;;;;;;;;;20.46;63.79;95967.81;5089817;28;19991;-77
2021/08/05 09:21:17;;;;;;;;;;;;;;;20.64;62.55;95963.53;5087955;28;19969;-77
2021/08/05 09:23:47;;;;;;;;;;;;;;;20.61;62.25;95974.00;5087619;28;19964;-77
2021/08/05 09:26:22;;;;;;;;;;;;;;;20.78;62.81;95968.88;5084885;28;19967;-77
2021/08/05 09:29:14;;;;;;;;;;;;;;;21.03;62.03;95969.50;5083405;28;19965;-77
2021/08/05 09:31:45;;;;;;;;;;;;;;;21.08;61.89;95975.53;5063326;28;20335;-78
2021/08/05 09:34:16;;;;;;;;;;;;;;;20.96;60.57;95955.78;5083162;28;19972;-78
2021/08/05 09:36:43;;;;;;;;;;;;;;;21.01;58.10;95929.78;5091578;28;19972;-77
2021/08/05 09:39:29;;;;;;;;;;;;;;;21.15;61.79;95969.00;5085637;28;19975;-78
2021/08/05 09:42:05;;;;;;;;;;;;;;;21.26;59.17;95939.16;5085498;28;20024;-77
2021/08/05 09:44:34;;;;;;;;;;;;;;;21.22;59.75;95950.72;5088985;28;19975;-76
2021/08/05 09:47:03;;;;;;;;;;;;;;;21.15;61.37;95959.13;5081267;28;19960;-76
2021/08/05 09:49:30;;;;;;;;;;;;;;;21.33;61.06;95948.63;5080847;28;20348;-77
2021/08/05 09:51:56;;;;;;;;;;;;;;;21.41;59.68;95934.59;5085229;28;19976;-77
2021/08/05 09:54:22;;;;;;;;;;;;;;;21.26;58.87;95933.03;5074066;28;20038;-77
2021/08/05 09:56:57;;;;;;;;;;;;;;;21.29;60.47;95951.91;5086058;28;19976;-77
2021/08/05 09:59:23;;;;;;;;;;;;;;;21.46;58.48;95934.50;5085687;28;19972;-77
2021/08/05 10:01:56;;;;;;;;;;;;;;;21.78;61.47;95952.22;5089746;28;19965;-77
2021/08/05 10:04:27;;;;;;;;;;;;;;;21.98;59.57;95931.47;5070540;28;19964;-77
2021/08/05 10:07:06;;;;;;;;;;;;;;;21.99;57.16;95912.47;5084597;28;20316;-77
2021/08/05 10:09:33;;;;;;;;;;;;;;;21.78;56.57;95908.72;5085157;28;19983;-77
2021/08/05 10:12:13;;;;;;;;;;;;;;;21.67;57.42;95908.16;5088142;28;19964;-76
2021/08/05 10:14:39;;;;;;;;;;;;;;;21.65;58.26;95908.47;5086927;28;19968;-77
2021/08/05 10:17:06;;;;;;;;;;;;;;;21.62;57.13;95890.38;5090395;28;19965;-76
2021/08/05 10:19:36;;;;;;;;;;;;;;;21.49;54.03;95875.22;5087328;28;19968;-77
2021/08/05 10:22:02;;;;;;;;;;;;;;;21.38;55.01;95887.97;5082766;28;19968;-77
2021/08/05 10:24:29;;;;;;;;;;;;;;;21.45;57.65;95895.59;5082096;28;19969;-77
2021/08/05 10:26:55;;;;;;;;;;;;;;;21.78;57.58;95900.72;5088946;28;19960;-77
2021/08/05 10:29:21;;;;;;;;;;;;;;;22.12;57.87;95896.69;5083189;28;19983;-77
2021/08/05 10:31:48;;;;;;;;;;;;;;;22.26;57.97;95898.22;5085065;28;20026;-77
2021/08/05 10:34:14;;;;;;;;;;;;;;;22.35;56.54;95876.91;5060530;28;19974;-77
2021/08/05 10:36:40;;;;;;;;;;;;;;;22.61;54.78;95857.50;5084404;28;20015;-77
2021/08/05 10:39:06;;;;;;;;;;;;;;;22.56;54.50;95860.34;5088370;28;19965;-78
2021/08/05 10:41:32;;;;;;;;;;;;;;;22.67;53.90;95848.25;5045942;28;19965;-77
2021/08/05 10:44:00;;;;;;;;;;;;;;;22.77;55.20;95852.53;5082708;28;20439;-78
2021/08/05 10:46:33;;;;;;;;;;;;;;;22.76;53.95;95848.28;5089335;28;19968;-78
2021/08/05 10:49:05;;;;;;;;;;;;;;;22.76;54.79;95857.06;5085991;28;19968;-77
2021/08/05 10:51:35;;;;;;;;;;;;;;;22.74;53.76;95840.59;5083836;28;20515;-77
2021/08/05 10:54:01;;;;;;;;;;;;;;;22.63;51.42;95813.34;5064637;28;20340;-77
2021/08/05 10:56:30;;;;;;;;;;;;;;;22.54;53.31;95830.47;5083372;28;20436;-78
2021/08/05 10:59:03;;;;;;;;;;;;;;;22.65;50.28;95803.13;5083422;28;19979;-78
2021/08/05 11:01:48;;;;;;;;;;;;;;;22.65;51.87;95813.81;5054341;28;19975;-80
2021/08/05 11:04:33;;;;;;;;;;;;;;;22.58;47.47;95778.75;5042527;28;19995;-80
2021/08/05 11:07:17;;;;;;;;;;;;;;;22.52;53.06;95836.09;5074280;28;19968;-80
2021/08/05 11:09:43;;;;;;;;;;;;;;;22.58;50.97;95818.06;5048759;28;19987;-80
2021/08/05 11:12:27;;;;;;;;;;;;;;;22.61;52.75;95823.53;5064047;28;20063;-80
2021/08/05 11:14:53;;;;;;;;;;;;;;;22.56;51.20;95802.31;5058998;28;19960;-80
2021/08/05 11:17:19;;;;;;;;;;;;;;;22.53;53.18;95826.19;5067892;28;20033;-79
2021/08/05 11:19:45;;;;;;;;;;;;;;;22.47;52.14;95809.53;5052817;28;20640;-80
2021/08/05 11:22:29;;;;;;;;;;;;;;;22.40;48.45;95790.47;5086784;28;20447;-78
2021/08/05 11:24:55;;;;;;;;;;;;;;;22.26;51.41;95807.41;5083645;28;19965;-81
2021/08/05 11:27:22;;;;;;;;;;;;;;;22.44;52.05;95804.81;5064758;28;19972;-79
2021/08/05 11:29:48;;;;;;;;;;;;;;;22.63;49.95;95793.84;5052659;28;19988;-80
2021/08/05 11:32:20;;;;;;;;;;;;;;;22.77;52.68;95804.41;5065126;28;19968;-80
2021/08/05 11:34:55;;;;;;;;;;;;;;;22.80;53.01;95799.22;5082536;28;20440;-80
2021/08/05 11:37:22;;;;;;;;;;;;;;;22.77;51.69;95793.72;5062372;28;19971;-80
2021/08/05 11:39:49;;;;;;;;;;;;;;;22.65;52.86;95813.03;5064930;28;19965;-79
2021/08/05 11:42:16;;;;;;;;;;;;;;;22.44;52.41;95800.22;5085177;28;19964;-80
2021/08/05 11:45:02;;;;;;;;;;;;;;;22.31;53.21;95814.50;5075246;28;19961;-80
2021/08/05 11:47:28;;;;;;;;;;;;;;;22.26;53.80;95811.97;5060011;28;19988;-79
2021/08/05 11:50:00;;;;;;;;;;;;;;;22.11;51.43;95794.41;5051920;28;20356;-80
2021/08/05 11:52:27;;;;;;;;;;;;;;;22.01;53.65;95803.50;5049401;28;19964;-80
2021/08/05 11:54:56;;;;;;;;;;;;;;;22.05;53.75;95804.47;5062089;28;20004;-80
2021/08/05 11:57:23;;;;;;;;;;;;;;;22.20;56.91;95831.88;5081387;28;19968;-81
2021/08/05 11:59:50;;;;;;;;;;;;;;;22.39;54.92;95807.63;5088707;28;20637;-81
2021/08/05 12:02:22;;;;;;;;;;;;;;;22.55;52.96;95791.94;5083908;28;19971;-80
2021/08/05 12:04:48;;;;;;;;;;;;;;;22.60;53.56;95792.59;5059978;28;19960;-80
2021/08/05 12:07:15;;;;;;;;;;;;;;;22.68;55.06;95801.72;5062960;28;20036;-78
2021/08/05 12:09:41;;;;;;;;;;;;;;;22.70;54.50;95788.84;5085709;28;19977;-80
2021/08/05 12:12:07;;;;;;;;;;;;;;;22.58;51.24;95764.59;5078885;28;19970;-78
2021/08/05 12:14:33;;;;;;;;;;;;;;;22.40;52.60;95775.22;5082721;28;20018;-78
2021/08/05 12:16:59;;;;;;;;;;;;;;;22.29;52.92;95776.63;5065132;28;20059;-78
2021/08/05 12:19:25;;;;;;;;;;;;;;;22.10;53.72;95779.50;5081102;28;19969;-78
2021/08/05 12:21:51;;;;;;;;;;;;;;;22.03;53.54;95768.50;5087294;28;19972;-81
2021/08/05 12:24:17;;;;;;;;;;;;;;;22.04;53.80;95778.84;5051885;28;19964;-80
2021/08/05 12:26:43;;;;;;;;;;;;;;;22.12;55.55;95787.22;5065585;28;19969;-80
2021/08/05 12:29:10;;;;;;;;;;;;;;;22.22;52.96;95770.94;5031188;28;20079;-80
2021/08/05 12:31:36;;;;;;;;;;;;;;;22.36;54.14;95784.19;5058947;28;19968;-80
2021/08/05 12:34:02;;;;;;;;;;;;;;;22.51;53.62;95767.75;5062099;28;20336;-80
2021/08/05 12:36:28;;;;;;;;;;;;;;;22.60;51.64;95757.06;5072544;28;19968;-81
2021/08/05 12:38:56;;;;;;;;;;;;;;;22.61;53.69;95763.97;5045593;28;19976;-80
2021/08/05 12:41:22;;;;;;;;;;;;;;;22.67;55.34;95786.78;5048164;28;20417;-80
2021/08/05 12:43:48;;;;;;;;;;;;;;;22.52;55.05;95776.53;5069219;28;19971;-81
2021/08/05 12:46:14;;;;;;;;;;;;;;;22.47;56.51;95796.19;5033072;28;19968;-80
2021/08/05 12:48:41;;;;;;;;;;;;;;;22.52;57.58;95803.25;5065028;28;19976;-80